Lahaina, HI (96761)

9:44 AM HST on March 30, 2017 (GMT -1000)
The Ridge at Kapalua | | Change Station

Elev 100 ft 21.00 °N, 156.66 °W | Updated 2 minutes ago

Partly Cloudy
Partly Cloudy
79.5 °F
Feels Like 82 °F
N
2.9
Wind Variable Wind from East
Gusts 18.0 mph

Today
High -- | Low -- °F
--% Chance of Precip.
Yesterday
High -- | Low -- °F
Precip. -- in
Pressure 30.10 in
Visibility 15.0 miles
Clouds Few 2500 ft
Scattered Clouds 4000 ft
Heat Index 82 °F
Dew Point 69 °F
Humidity 70%
Rainfall 0.00 in
Snow Depth Not available.
6:21 AM 6:40 PM
Waxing Crescent, 10% visible
METAR PHJH 301850Z 04012KT 15SM FEW025 SCT040 25/17 A3010
Pressure 30.10 in
Visibility 15.0 miles
Clouds Few 2500 ft
Scattered Clouds 4000 ft
Heat Index 82 °F
Dew Point 69 °F
Humidity 70%
Rainfall 0.00 in
Snow Depth Not available.
6:21 AM 6:40 PM
Waxing Crescent, 10% visible
METAR PHJH 301850Z 04012KT 15SM FEW025 SCT040 25/17 A3010

Get Severe Weather Alerts

Thanks for signing up!

Be on the lookout for a verification email in your inbox.

You'll start receiving the daily forecast at 8 AM.

×

10-Day Weather Forecast

Almanac

Astronomy

Mar. 30, 2017 Rise Set
Actual Time
Civil Twilight
Nautical Twilight
Astronomical Twilight
Moon
Length of Visible Light
Length of Day
Tomorrow will be .
, % of the Moon is Illuminated

Today's Extremes

State Highs State Lows

Community

WunderPhotos

Upload Photos

1,962,540 photos uploaded!

WunderBlog® & News

Nearby

Air Quality

  Air Quality AQ Index Pollutant
Not available.

Snow Depth

Station Depth Elevation

Earthquake Activity

City Distance Mag. Time & Date
Minimum magnitude displayed is 2.5.

Earthquake Activity

City Distance Mag. Time & Date
Minimum magnitude displayed is 2.5.

Coastal Water Temperatures

Place Temperature

Stations

Nearby Weather Stations

Station Location Temp. Windchill Dew Point Humidity Wind Precip. Elev Updated Type
                   

Watches & Warnings

There are currently no watches in effect.